Wichita Mid Continent Airport
KICT : rendu visible

Aérodrome :











RETROUVEZ-NOUS SUR...

 
LOGIN :

S'inscrire | Disclaimer

   EN    FR    IT 

 









Légende :    VFR   VFR Marginal   IFR   IFR Intensif   IFR Très Intensif
Visi : 
Plafond : 
>= 8 km
>= 3000ft
5 à 8 km
1000 à 3000 ft
1500m à 5 km
500 à 1000 ft
800 à 1500m
200 à 500 ft
< 800m
< 200 ft
Symboles :   Orages  Brouillard  Fortes neiges  Fortes précipitations  Vent > 20 kt






- Altitude de l'aérodrome : 1333 ft
- Code IATA : ICT


KICT - Wichita Mid Continent

DERNIER METAR :
  • 192353Z 05012KT 10SM OVC090 15/M04 A3019 RMK AO2 SLP225 T01501039 10172 20144 53001

METARs EXPIRÉS :
  • 192253Z 03011KT 10SM OVC090 16/M03 A3019 RMK AO2 SLP222 T01611033
  • 192153Z 04011G14KT 10SM OVC095 16/M04 A3019 RMK AO2 SLP222 T01611039
  • 192053Z 04012KT 10SM FEW085 SCT210 17/M03 A3019 RMK AO2 SLP222 T01721033 56021
  • 191953Z 04008G17KT 10SM FEW085 BKN210 16/M03 A3021 RMK AO2 SLP228 T01611033

TAF KICT
Valide du 20 à 00h jusqu'au 21 à 00h UTC


192330Z 2000/2024 06009KT P6SM BKN100
FM200800 03007KT P6SM BKN100
FM201200 04011G20KT P6SM BKN100
FM202100 04010KT P6SM BKN080
FIR KZKC / Amérique du Nord



MET'MAP, la Météo Aéronautique d'un coup d'oeil ! - Copyright ORBIFLY Décembre 2007 - Disclaimer

ORBIFLY MET'MAP TEAM :

Programmation & Développement : Alexandra Zaïnal
Sur une idée originale de : Baudouin d'Aumeries
Soutien technique & logistique : Manuel Goepfert
Assistance : Marc-Olivier Méhu




SOURCES & CREDITS :

   NOAA       Earth
Advisory